Time,TemperatureF,DewpointF,PressureIn,WindDirection,WindDirectionDegrees,WindSpeedMPH,WindSpeedGustMPH,Humidity,HourlyPrecipIn,Conditions,Clouds,dailyrainin,SoftwareType,DateUTC
2013-06-13 00:00:00,54.2,53.4,29.84,West,275,0.0,13.0,97,0.00,,,0.23,Wunderground v.1.15,2013-06-13 04:00:00,
2013-06-13 00:10:00,54.5,53.4,29.84,West,275,0.0,0.0,96,0.00,,,0.00,Wunderground v.1.15,2013-06-13 04:10:00,
2013-06-13 00:20:00,54.5,53.4,29.83,West,275,0.0,0.0,96,0.00,,,0.00,Wunderground v.1.15,2013-06-13 04:20:00,
2013-06-13 00:30:00,54.5,53.4,29.83,West,275,0.0,0.0,96,0.00,,,0.00,Wunderground v.1.15,2013-06-13 04:30:00,
2013-06-13 00:40:00,54.4,53.0,29.83,West,275,0.0,0.0,95,0.00,,,0.00,Wunderground v.1.15,2013-06-13 04:40:00,
2013-06-13 00:50:00,54.2,53.1,29.82,West,275,0.0,0.0,96,0.00,,,0.00,Wunderground v.1.15,2013-06-13 04:50:00,
2013-06-13 01:00:00,53.8,52.7,29.82,West,275,0.0,0.0,96,0.00,,,0.00,Wunderground v.1.15,2013-06-13 05:00:00,
2013-06-13 01:10:00,53.3,52.2,29.83,West,275,0.0,0.0,96,0.00,,,0.00,Wunderground v.1.15,2013-06-13 05:10:00,
2013-06-13 01:20:00,53.2,52.1,29.83,West,275,0.0,0.0,96,0.00,,,0.00,Wunderground v.1.15,2013-06-13 05:20:00,
2013-06-13 01:30:00,53.1,52.3,29.83,West,275,0.0,0.0,97,0.00,,,0.00,Wunderground v.1.15,2013-06-13 05:30:00,
2013-06-13 01:40:00,52.9,52.1,29.82,West,275,0.0,0.0,97,0.00,,,0.00,Wunderground v.1.15,2013-06-13 05:40:00,
2013-06-13 01:50:00,52.9,52.1,29.82,West,275,0.0,0.0,97,0.00,,,0.00,Wunderground v.1.15,2013-06-13 05:50:00,
2013-06-13 02:00:00,52.5,51.7,29.82,West,275,0.0,0.0,97,0.00,,,0.00,Wunderground v.1.15,2013-06-13 06:00:00,
2013-06-13 02:10:00,51.9,51.1,29.82,SSW,212,0.0,0.0,97,0.00,,,0.00,Wunderground v.1.15,2013-06-13 06:10:00,
2013-06-13 02:20:00,51.6,51.1,29.82,SSW,195,0.0,0.0,98,0.00,,,0.00,Wunderground v.1.15,2013-06-13 06:20:00,
2013-06-13 02:30:00,51.7,51.2,29.82,ENE,60,0.0,0.0,98,0.00,,,0.00,Wunderground v.1.15,2013-06-13 06:30:00,
2013-06-13 02:40:00,51.6,50.5,29.82,South,179,0.0,0.0,96,0.00,,,0.00,Wunderground v.1.15,2013-06-13 06:40:00,
2013-06-13 02:50:00,50.7,49.9,29.81,South,179,0.0,0.0,97,0.00,,,0.00,Wunderground v.1.15,2013-06-13 06:50:00,
2013-06-13 03:00:00,50.1,49.3,29.80,South,179,0.0,0.0,97,0.00,,,0.00,Wunderground v.1.15,2013-06-13 07:00:00,
2013-06-13 03:10:00,50.2,49.7,29.80,South,179,0.0,0.0,98,0.00,,,0.00,Wunderground v.1.15,2013-06-13 07:10:00,
2013-06-13 03:19:00,50.2,49.9,29.81,South,179,0.0,0.0,99,0.00,,,0.00,Wunderground v.1.15,2013-06-13 07:19:00,
2013-06-13 03:30:00,50.2,49.9,29.81,South,179,0.0,0.0,99,0.00,,,0.00,Wunderground v.1.15,2013-06-13 07:30:00,
2013-06-13 03:40:00,49.9,49.6,29.80,South,179,0.0,0.0,99,0.00,,,0.00,Wunderground v.1.15,2013-06-13 07:40:00,
2013-06-13 03:50:00,49.9,49.6,29.80,South,179,0.0,0.0,99,0.00,,,0.00,Wunderground v.1.15,2013-06-13 07:50:00,
2013-06-13 04:00:00,49.8,49.5,29.80,South,179,0.0,0.0,99,0.00,,,0.00,Wunderground v.1.15,2013-06-13 08:00:00,
2013-06-13 04:10:00,50.1,49.8,29.80,South,179,0.0,0.0,99,0.00,,,0.00,Wunderground v.1.15,2013-06-13 08:10:00,
2013-06-13 04:20:00,49.6,49.3,29.80,South,179,0.0,0.0,99,0.00,,,0.00,Wunderground v.1.15,2013-06-13 08:20:00,
2013-06-13 04:30:00,49.4,49.1,29.80,South,179,0.0,0.0,99,0.00,,,0.00,Wunderground v.1.15,2013-06-13 08:30:00,
2013-06-13 04:40:00,49.2,48.9,29.80,South,179,0.0,0.0,99,0.00,,,0.00,Wunderground v.1.15,2013-06-13 08:40:00,
2013-06-13 04:50:00,49.4,49.1,29.79,South,179,0.0,0.0,99,0.00,,,0.00,Wunderground v.1.15,2013-06-13 08:50:00,
2013-06-13 05:00:00,48.6,48.3,29.80,South,179,0.0,0.0,99,0.00,,,0.00,Wunderground v.1.15,2013-06-13 09:00:00,
2013-06-13 05:10:00,48.3,48.0,29.80,South,179,0.0,0.0,99,0.00,,,0.00,Wunderground v.1.15,2013-06-13 09:10:00,
2013-06-13 05:20:00,50.4,50.4,29.78,NNE,32,1.0,1.0,100,0.00,,,0.00,Wunderground v.1.15,2013-06-13 09:20:00,
2013-06-13 05:30:00,48.9,48.6,29.78,NNE,31,0.0,0.0,99,0.00,,,0.00,Wunderground v.1.15,2013-06-13 09:30:00,
2013-06-13 05:40:00,48.0,47.7,29.79,NNE,31,0.0,0.0,99,0.00,,,0.00,Wunderground v.1.15,2013-06-13 09:40:00,
2013-06-13 05:50:00,47.6,47.3,29.79,NNE,31,0.0,0.0,99,0.00,,,0.00,Wunderground v.1.15,2013-06-13 09:50:00,
2013-06-13 06:00:00,47.7,47.4,29.79,NNE,31,0.0,0.0,99,0.00,,,0.00,Wunderground v.1.15,2013-06-13 10:00:00,
2013-06-13 06:10:00,48.2,47.9,29.78,NNE,31,0.0,0.0,99,0.00,,,0.00,Wunderground v.1.15,2013-06-13 10:10:00,
2013-06-13 06:20:00,48.8,48.8,29.79,NNE,31,0.0,0.0,100,0.00,,,0.00,Wunderground v.1.15,2013-06-13 10:20:00,
2013-06-13 06:29:00,50.4,50.4,29.79,East,80,0.0,2.0,100,0.00,,,0.00,Wunderground v.1.15,2013-06-13 10:29:00,
2013-06-13 06:40:00,52.2,52.2,29.78,ESE,121,1.0,1.0,100,0.00,,,0.00,Wunderground v.1.15,2013-06-13 10:40:00,
2013-06-13 06:50:00,52.0,51.5,29.79,ESE,121,0.0,0.0,98,0.00,,,0.00,Wunderground v.1.15,2013-06-13 10:50:00,
2013-06-13 07:00:00,52.2,51.7,29.79,ESE,121,0.0,1.0,98,0.00,,,0.00,Wunderground v.1.15,2013-06-13 11:00:00,
2013-06-13 07:10:00,52.3,51.8,29.78,ESE,121,0.0,0.0,98,0.00,,,0.00,Wunderground v.1.15,2013-06-13 11:10:00,
2013-06-13 07:20:00,52.2,51.7,29.78,ESE,121,0.0,0.0,98,0.00,,,0.00,Wunderground v.1.15,2013-06-13 11:20:00,
2013-06-13 07:30:00,52.3,51.8,29.78,ESE,121,0.0,0.0,98,0.00,,,0.00,Wunderground v.1.15,2013-06-13 11:30:00,
2013-06-13 07:40:00,52.8,52.3,29.77,ESE,121,0.0,0.0,98,0.00,,,0.00,Wunderground v.1.15,2013-06-13 11:40:00,
2013-06-13 07:50:00,53.6,53.0,29.77,ESE,121,0.0,0.0,98,0.00,,,0.00,Wunderground v.1.15,2013-06-13 11:50:00,
2013-06-13 08:00:00,54.5,53.9,29.77,East,85,0.0,0.0,98,0.00,,,0.00,Wunderground v.1.15,2013-06-13 12:00:00,
2013-06-13 08:10:00,55.3,53.9,29.77,East,85,0.0,0.0,95,0.00,,,0.00,Wunderground v.1.15,2013-06-13 12:10:00,
2013-06-13 08:20:00,55.9,54.5,29.77,East,85,0.0,0.0,95,0.00,,,0.00,Wunderground v.1.15,2013-06-13 12:20:00,
2013-06-13 08:30:00,56.2,54.2,29.77,East,85,0.0,0.0,93,0.00,,,0.00,Wunderground v.1.15,2013-06-13 12:30:00,
2013-06-13 08:40:00,56.5,54.8,29.76,East,85,0.0,0.0,94,0.00,,,0.00,Wunderground v.1.15,2013-06-13 12:40:00,
2013-06-13 08:50:00,56.3,53.4,29.76,East,85,0.0,0.0,90,0.00,,,0.00,Wunderground v.1.15,2013-06-13 12:50:00,
2013-06-13 09:00:00,56.6,54.3,29.76,East,85,0.0,0.0,92,0.00,,,0.00,Wunderground v.1.15,2013-06-13 13:00:00,
2013-06-13 09:10:00,56.6,54.6,29.76,ESE,104,0.0,0.0,93,0.00,,,0.00,Wunderground v.1.15,2013-06-13 13:10:00,
2013-06-13 09:20:00,56.6,54.9,29.75,ESE,104,0.0,0.0,94,0.00,,,0.00,Wunderground v.1.15,2013-06-13 13:20:00,
2013-06-13 09:30:00,56.7,55.0,29.75,ESE,104,0.0,0.0,94,0.00,,,0.00,Wunderground v.1.15,2013-06-13 13:30:00,
2013-06-13 09:40:00,56.9,55.2,29.75,WNW,301,0.0,0.0,94,0.00,,,0.00,Wunderground v.1.15,2013-06-13 13:40:00,
2013-06-13 09:50:00,57.2,54.9,29.75,North,359,0.0,0.0,92,0.00,,,0.00,Wunderground v.1.15,2013-06-13 13:50:00,
2013-06-13 10:00:00,57.8,55.8,29.75,North,359,0.0,0.0,93,0.00,,,0.00,Wunderground v.1.15,2013-06-13 14:00:00,
2013-06-13 10:10:00,58.1,56.1,29.75,NNW,331,0.0,0.0,93,0.00,,,0.00,Wunderground v.1.15,2013-06-13 14:10:00,
2013-06-13 10:20:00,58.4,55.8,29.75,ESE,108,0.0,0.0,91,0.00,,,0.00,Wunderground v.1.15,2013-06-13 14:20:00,
2013-06-13 10:30:00,59.0,56.7,29.75,ESE,108,0.0,0.0,92,0.00,,,0.00,Wunderground v.1.15,2013-06-13 14:30:00,
2013-06-13 10:40:00,59.6,57.3,29.75,NNE,20,0.0,0.0,92,0.00,,,0.00,Wunderground v.1.15,2013-06-13 14:40:00,
2013-06-13 10:50:00,59.9,57.6,29.75,NNE,20,0.0,0.0,92,0.00,,,0.00,Wunderground v.1.15,2013-06-13 14:50:00,
2013-06-13 11:00:00,60.4,58.7,29.75,NNE,20,0.0,0.0,94,0.00,,,0.01,Wunderground v.1.15,2013-06-13 15:00:00,
2013-06-13 11:10:00,60.4,58.4,29.75,NNE,20,0.0,0.0,93,0.00,,,0.01,Wunderground v.1.15,2013-06-13 15:10:00,
2013-06-13 11:20:00,60.2,58.2,29.75,NNE,20,0.0,0.0,93,0.00,,,0.02,Wunderground v.1.15,2013-06-13 15:20:00,
2013-06-13 11:29:00,60.1,58.1,29.75,NNE,20,0.0,0.0,93,0.00,,,0.02,Wunderground v.1.15,2013-06-13 15:29:00,
2013-06-13 11:40:00,59.2,56.6,29.75,NNE,20,0.0,0.0,91,0.04,,,0.03,Wunderground v.1.15,2013-06-13 15:40:00,
2013-06-13 11:50:00,58.9,56.9,29.75,NNE,20,0.0,0.0,93,0.09,,,0.05,Wunderground v.1.15,2013-06-13 15:50:00,
2013-06-13 12:00:00,58.6,56.6,29.75,NNE,20,0.0,0.0,93,0.06,,,0.06,Wunderground v.1.15,2013-06-13 16:00:00,
2013-06-13 12:10:00,58.6,56.6,29.75,NNE,20,0.0,0.0,93,0.08,,,0.07,Wunderground v.1.15,2013-06-13 16:10:00,
2013-06-13 12:20:00,58.7,57.3,29.75,NNE,20,0.0,0.0,95,0.04,,,0.08,Wunderground v.1.15,2013-06-13 16:20:00,
2013-06-13 12:30:00,58.9,57.5,29.74,NNE,20,0.0,0.0,95,0.08,,,0.09,Wunderground v.1.15,2013-06-13 16:30:00,
2013-06-13 12:40:00,58.6,57.2,29.74,NNE,20,0.0,0.0,95,0.04,,,0.09,Wunderground v.1.15,2013-06-13 16:40:00,
2013-06-13 12:50:00,58.6,57.5,29.73,NNE,20,0.0,0.0,96,0.00,,,0.10,Wunderground v.1.15,2013-06-13 16:50:00,
2013-06-13 13:00:00,58.4,56.4,29.73,NE,47,0.0,0.0,93,0.06,,,0.11,Wunderground v.1.15,2013-06-13 17:00:00,
2013-06-13 13:10:00,58.4,55.8,29.72,SE,138,0.0,0.0,91,0.05,,,0.12,Wunderground v.1.15,2013-06-13 17:10:00,
2013-06-13 13:19:00,58.4,56.1,29.71,East,93,0.0,0.0,92,0.08,,,0.13,Wunderground v.1.15,2013-06-13 17:19:00,
2013-06-13 13:30:00,58.3,55.7,29.71,West,271,1.0,1.0,91,0.06,,,0.14,Wunderground v.1.15,2013-06-13 17:30:00,
2013-06-13 13:40:00,58.6,56.9,29.69,West,271,0.0,0.0,94,0.06,,,0.15,Wunderground v.1.15,2013-06-13 17:40:00,
2013-06-13 13:50:00,58.9,57.5,29.69,West,271,0.0,0.0,95,0.04,,,0.15,Wunderground v.1.15,2013-06-13 17:50:00,
2013-06-13 14:00:00,58.9,57.5,29.69,West,271,0.0,0.0,95,0.00,,,0.16,Wunderground v.1.15,2013-06-13 18:00:00,
2013-06-13 14:10:00,59.2,57.8,29.69,West,271,0.0,0.0,95,0.04,,,0.17,Wunderground v.1.15,2013-06-13 18:10:00,
2013-06-13 14:20:00,59.5,58.4,29.69,WSW,245,0.0,0.0,96,0.04,,,0.17,Wunderground v.1.15,2013-06-13 18:20:00,
2013-06-13 14:30:00,59.6,58.5,29.69,WSW,245,0.0,0.0,96,0.00,,,0.17,Wunderground v.1.15,2013-06-13 18:30:00,
2013-06-13 14:40:00,58.9,55.7,29.69,East,88,1.0,1.0,89,0.00,,,0.18,Wunderground v.1.15,2013-06-13 18:40:00,
2013-06-13 14:50:00,58.4,54.9,29.70,ESE,121,2.0,2.0,88,0.04,,,0.19,Wunderground v.1.15,2013-06-13 18:50:00,
2013-06-13 15:00:00,58.4,55.8,29.70,SSE,158,1.0,1.0,91,0.04,,,0.19,Wunderground v.1.15,2013-06-13 19:00:00,
2013-06-13 15:10:00,58.9,56.0,29.69,SSE,159,0.0,0.0,90,0.04,,,0.20,Wunderground v.1.15,2013-06-13 19:10:00,
2013-06-13 15:20:00,58.9,56.0,29.69,SSE,158,0.0,0.0,90,0.05,,,0.21,Wunderground v.1.15,2013-06-13 19:20:00,
2013-06-13 15:30:00,59.2,56.9,29.69,SSE,158,0.0,0.0,92,0.04,,,0.21,Wunderground v.1.15,2013-06-13 19:30:00,
2013-06-13 15:40:00,58.7,56.4,29.69,SSE,155,0.0,0.0,92,0.00,,,0.21,Wunderground v.1.15,2013-06-13 19:40:00,
2013-06-13 15:50:00,58.3,56.0,29.70,SSE,155,0.0,0.0,92,0.00,,,0.22,Wunderground v.1.15,2013-06-13 19:50:00,
2013-06-13 16:00:00,57.6,55.0,29.70,SSE,154,0.0,0.0,91,0.06,,,0.23,Wunderground v.1.15,2013-06-13 20:00:00,
2013-06-13 16:10:00,57.0,54.1,29.71,ESE,121,1.0,1.0,90,0.05,,,0.24,Wunderground v.1.15,2013-06-13 20:10:00,
2013-06-13 16:20:00,57.0,55.0,29.71,ESE,121,0.0,0.0,93,0.08,,,0.25,Wunderground v.1.15,2013-06-13 20:20:00,
2013-06-13 16:30:00,56.7,54.7,29.71,ESE,121,1.0,1.0,93,0.06,,,0.26,Wunderground v.1.15,2013-06-13 20:30:00,
2013-06-13 16:40:00,56.9,54.6,29.70,SE,143,1.0,1.0,92,0.06,,,0.27,Wunderground v.1.15,2013-06-13 20:40:00,
2013-06-13 16:50:00,56.3,53.4,29.71,ESE,112,1.0,1.0,90,0.04,,,0.28,Wunderground v.1.15,2013-06-13 20:50:00,
2013-06-13 17:00:00,56.2,53.6,29.71,East,88,1.0,5.0,91,0.06,,,0.29,Wunderground v.1.15,2013-06-13 21:00:00,
2013-06-13 17:10:00,56.2,53.9,29.71,NNE,14,1.0,1.0,92,0.04,,,0.29,Wunderground v.1.15,2013-06-13 21:10:00,
2013-06-13 17:20:00,56.0,53.7,29.71,NNE,14,0.0,0.0,92,0.08,,,0.31,Wunderground v.1.15,2013-06-13 21:20:00,
2013-06-13 17:30:00,56.3,54.9,29.71,NNE,14,0.0,0.0,95,0.05,,,0.31,Wunderground v.1.15,2013-06-13 21:30:00,
2013-06-13 17:40:00,56.2,54.8,29.71,NNE,14,0.0,0.0,95,0.00,,,0.32,Wunderground v.1.15,2013-06-13 21:40:00,
2013-06-13 17:50:00,55.9,54.5,29.71,NE,34,0.0,0.0,95,0.07,,,0.33,Wunderground v.1.15,2013-06-13 21:50:00,
2013-06-13 18:00:00,56.0,54.9,29.71,NE,34,0.0,0.0,96,0.04,,,0.33,Wunderground v.1.15,2013-06-13 22:00:00,
2013-06-13 18:10:00,55.9,54.8,29.70,NE,34,0.0,0.0,96,0.00,,,0.34,Wunderground v.1.15,2013-06-13 22:10:00,
2013-06-13 18:20:00,55.7,54.9,29.70,NE,34,0.0,0.0,97,0.05,,,0.35,Wunderground v.1.15,2013-06-13 22:20:00,
2013-06-13 18:30:00,55.7,54.9,29.70,NE,34,0.0,0.0,97,0.05,,,0.35,Wunderground v.1.15,2013-06-13 22:30:00,
2013-06-13 18:40:00,55.6,55.0,29.70,NE,34,0.0,0.0,98,0.00,,,0.35,Wunderground v.1.15,2013-06-13 22:40:00,
2013-06-13 18:50:00,55.9,55.3,29.71,NE,34,0.0,0.0,98,0.00,,,0.35,Wunderground v.1.15,2013-06-13 22:50:00,
2013-06-13 19:00:00,55.9,55.3,29.71,NE,34,0.0,0.0,98,0.00,,,0.36,Wunderground v.1.15,2013-06-13 23:00:00,
2013-06-13 19:10:00,55.6,54.8,29.71,NE,34,0.0,2.0,97,0.00,,,0.36,Wunderground v.1.15,2013-06-13 23:10:00,
2013-06-13 19:20:00,55.3,54.5,29.71,NE,34,0.0,2.0,97,0.00,,,0.36,Wunderground v.1.15,2013-06-13 23:20:00,
2013-06-13 19:30:00,55.1,54.5,29.71,NE,34,0.0,2.0,98,0.00,,,0.37,Wunderground v.1.15,2013-06-13 23:30:00,
2013-06-13 19:40:00,55.1,54.5,29.72,NE,34,0.0,2.0,98,0.00,,,0.37,Wunderground v.1.15,2013-06-13 23:40:00,
2013-06-13 19:50:00,55.1,54.5,29.71,NE,34,0.0,2.0,98,0.00,,,0.37,Wunderground v.1.15,2013-06-13 23:50:00,
2013-06-13 20:00:00,55.0,54.4,29.71,NE,34,0.0,2.0,98,0.00,,,0.38,Wunderground v.1.15,2013-06-14 00:00:00,
2013-06-13 20:10:00,54.8,54.5,29.71,NE,34,0.0,2.0,99,0.00,,,0.38,Wunderground v.1.15,2013-06-14 00:10:00,
2013-06-13 20:20:00,54.7,54.4,29.71,NE,34,0.0,2.0,99,0.00,,,0.38,Wunderground v.1.15,2013-06-14 00:20:00,
2013-06-13 20:30:00,54.5,54.2,29.71,NE,34,0.0,2.0,99,0.00,,,0.38,Wunderground v.1.15,2013-06-14 00:30:00,
2013-06-13 20:40:00,54.5,54.2,29.71,NE,34,0.0,2.0,99,0.00,,,0.38,Wunderground v.1.15,2013-06-14 00:40:00,
2013-06-13 20:49:00,54.4,54.1,29.71,NE,34,0.0,2.0,99,0.00,,,0.39,Wunderground v.1.15,2013-06-14 00:49:00,
2013-06-13 21:00:00,54.2,53.9,29.71,NE,34,0.0,2.0,99,0.00,,,0.39,Wunderground v.1.15,2013-06-14 01:00:00,
2013-06-13 21:10:00,53.9,53.6,29.71,NE,34,0.0,2.0,99,0.00,,,0.39,Wunderground v.1.15,2013-06-14 01:10:00,
2013-06-13 21:20:00,53.8,53.5,29.70,NE,34,0.0,2.0,99,0.00,,,0.39,Wunderground v.1.15,2013-06-14 01:20:00,
2013-06-13 21:30:00,53.8,53.5,29.70,NE,34,0.0,2.0,99,0.00,,,0.39,Wunderground v.1.15,2013-06-14 01:30:00,
2013-06-13 21:40:00,53.6,53.3,29.70,NE,34,0.0,2.0,99,0.00,,,0.39,Wunderground v.1.15,2013-06-14 01:40:00,
2013-06-13 21:50:00,53.5,53.2,29.70,NE,34,0.0,2.0,99,0.00,,,0.39,Wunderground v.1.15,2013-06-14 01:50:00,
2013-06-13 22:00:00,53.2,52.9,29.70,NE,34,0.0,2.0,99,0.00,,,0.39,Wunderground v.1.15,2013-06-14 02:00:00,
2013-06-13 22:10:00,52.9,52.6,29.71,NE,34,0.0,2.0,99,0.00,,,0.39,Wunderground v.1.15,2013-06-14 02:10:00,
2013-06-13 22:20:00,52.9,52.6,29.71,NE,34,0.0,2.0,99,0.00,,,0.39,Wunderground v.1.15,2013-06-14 02:20:00,
2013-06-13 22:30:00,52.8,52.5,29.71,NE,34,0.0,2.0,99,0.00,,,0.39,Wunderground v.1.15,2013-06-14 02:30:00,
2013-06-13 22:40:00,52.5,52.2,29.72,NE,34,0.0,2.0,99,0.00,,,0.39,Wunderground v.1.15,2013-06-14 02:40:00,
2013-06-13 22:50:00,52.2,51.9,29.72,NE,34,0.0,2.0,99,0.00,,,0.39,Wunderground v.1.15,2013-06-14 02:50:00,
2013-06-13 23:00:00,52.0,51.7,29.72,NE,34,0.0,2.0,99,0.00,,,0.39,Wunderground v.1.15,2013-06-14 03:00:00,
2013-06-13 23:10:00,51.9,51.6,29.72,NE,34,0.0,2.0,99,0.00,,,0.39,Wunderground v.1.15,2013-06-14 03:10:00,
2013-06-13 23:20:00,51.9,51.9,29.72,NE,34,0.0,2.0,100,0.00,,,0.39,Wunderground v.1.15,2013-06-14 03:20:00,
2013-06-13 23:30:00,52.2,52.2,29.72,NE,34,0.0,2.0,100,0.00,,,0.39,Wunderground v.1.15,2013-06-14 03:30:00,
2013-06-13 23:40:00,52.2,52.2,29.72,NE,34,0.0,2.0,100,0.00,,,0.39,Wunderground v.1.15,2013-06-14 03:40:00,
2013-06-13 23:50:00,52.2,52.2,29.72,NE,34,0.0,2.0,100,0.00,,,0.39,Wunderground v.1.15,2013-06-14 03:50:00,